sensor_id;sensor_type;location;lat;lon;timestamp;P1;durP1;ratioP1;P2;durP2;ratioP2
22502;SDS011;11418;48.118;9.992;2022-09-29T00:00:20;11.73;;;7.75;;
22502;SDS011;11418;48.118;9.992;2022-09-29T00:04:21;19.98;;;8.43;;
22502;SDS011;11418;48.118;9.992;2022-09-29T00:08:23;19.35;;;9.73;;
22502;SDS011;11418;48.118;9.992;2022-09-29T00:12:28;17.15;;;9.77;;
22502;SDS011;11418;48.118;9.992;2022-09-29T00:16:28;17.73;;;9.55;;
22502;SDS011;11418;48.118;9.992;2022-09-29T00:20:29;19.60;;;10.10;;
22502;SDS011;11418;48.118;9.992;2022-09-29T00:24:29;14.48;;;7.78;;
22502;SDS011;11418;48.118;9.992;2022-09-29T00:28:30;14.00;;;7.15;;
22502;SDS011;11418;48.118;9.992;2022-09-29T00:32:32;9.00;;;6.38;;
22502;SDS011;11418;48.118;9.992;2022-09-29T00:36:32;9.90;;;6.13;;
22502;SDS011;11418;48.118;9.992;2022-09-29T00:40:33;11.48;;;6.13;;
22502;SDS011;11418;48.118;9.992;2022-09-29T00:49:25;10.10;;;6.20;;
22502;SDS011;11418;48.118;9.992;2022-09-29T00:53:39;9.73;;;6.43;;
22502;SDS011;11418;48.118;9.992;2022-09-29T01:02:02;9.38;;;6.18;;
22502;SDS011;11418;48.118;9.992;2022-09-29T01:06:12;11.30;;;6.57;;
22502;SDS011;11418;48.118;9.992;2022-09-29T01:10:20;22.40;;;8.13;;
22502;SDS011;11418;48.118;9.992;2022-09-29T01:14:23;13.05;;;6.47;;
22502;SDS011;11418;48.118;9.992;2022-09-29T01:18:25;13.05;;;5.95;;
22502;SDS011;11418;48.118;9.992;2022-09-29T01:26:34;12.23;;;5.85;;
22502;SDS011;11418;48.118;9.992;2022-09-29T01:35:19;8.45;;;4.70;;
22502;SDS011;11418;48.118;9.992;2022-09-29T01:39:30;6.65;;;3.78;;
22502;SDS011;11418;48.118;9.992;2022-09-29T01:43:37;6.43;;;4.28;;
22502;SDS011;11418;48.118;9.992;2022-09-29T01:47:52;4.93;;;3.60;;
22502;SDS011;11418;48.118;9.992;2022-09-29T01:52:02;5.82;;;4.35;;
22502;SDS011;11418;48.118;9.992;2022-09-29T01:56:11;8.38;;;3.95;;
22502;SDS011;11418;48.118;9.992;2022-09-29T02:00:35;6.75;;;4.13;;
22502;SDS011;11418;48.118;9.992;2022-09-29T02:04:41;7.30;;;4.05;;
22502;SDS011;11418;48.118;9.992;2022-09-29T02:08:48;9.43;;;4.55;;
22502;SDS011;11418;48.118;9.992;2022-09-29T02:12:53;7.13;;;4.30;;
22502;SDS011;11418;48.118;9.992;2022-09-29T02:17:56;7.07;;;4.70;;
22502;SDS011;11418;48.118;9.992;2022-09-29T02:21:28;7.90;;;4.93;;
22502;SDS011;11418;48.118;9.992;2022-09-29T02:25:29;7.45;;;4.90;;
22502;SDS011;11418;48.118;9.992;2022-09-29T02:29:34;7.78;;;4.97;;
22502;SDS011;11418;48.118;9.992;2022-09-29T02:33:35;8.18;;;5.00;;
22502;SDS011;11418;48.118;9.992;2022-09-29T02:37:53;9.52;;;5.55;;
22502;SDS011;11418;48.118;9.992;2022-09-29T02:42:17;8.77;;;4.82;;
22502;SDS011;11418;48.118;9.992;2022-09-29T02:59:55;8.52;;;5.40;;
22502;SDS011;11418;48.118;9.992;2022-09-29T03:03:59;14.15;;;6.50;;
22502;SDS011;11418;48.118;9.992;2022-09-29T03:08:00;12.70;;;6.13;;
22502;SDS011;11418;48.118;9.992;2022-09-29T03:12:01;13.32;;;7.53;;
22502;SDS011;11418;48.118;9.992;2022-09-29T03:16:01;11.93;;;7.78;;
22502;SDS011;11418;48.118;9.992;2022-09-29T03:20:02;16.13;;;7.90;;
22502;SDS011;11418;48.118;9.992;2022-09-29T03:24:04;12.13;;;6.93;;
22502;SDS011;11418;48.118;9.992;2022-09-29T03:28:05;16.05;;;8.73;;
22502;SDS011;11418;48.118;9.992;2022-09-29T03:32:05;17.25;;;7.80;;
22502;SDS011;11418;48.118;9.992;2022-09-29T03:36:06;15.38;;;7.53;;
22502;SDS011;11418;48.118;9.992;2022-09-29T03:40:13;13.30;;;6.82;;
22502;SDS011;11418;48.118;9.992;2022-09-29T03:44:14;11.07;;;6.53;;
22502;SDS011;11418;48.118;9.992;2022-09-29T03:48:14;17.55;;;6.43;;
22502;SDS011;11418;48.118;9.992;2022-09-29T03:52:15;20.70;;;6.57;;
22502;SDS011;11418;48.118;9.992;2022-09-29T03:56:16;18.88;;;6.53;;
22502;SDS011;11418;48.118;9.992;2022-09-29T04:00:16;11.85;;;6.78;;
22502;SDS011;11418;48.118;9.992;2022-09-29T04:04:17;14.55;;;7.25;;
22502;SDS011;11418;48.118;9.992;2022-09-29T04:08:18;23.23;;;6.97;;
22502;SDS011;11418;48.118;9.992;2022-09-29T04:12:18;17.00;;;7.03;;
22502;SDS011;11418;48.118;9.992;2022-09-29T04:16:19;26.63;;;8.00;;
22502;SDS011;11418;48.118;9.992;2022-09-29T04:20:19;12.63;;;6.20;;
22502;SDS011;11418;48.118;9.992;2022-09-29T04:24:20;16.83;;;7.35;;
22502;SDS011;11418;48.118;9.992;2022-09-29T04:28:21;13.30;;;7.32;;
22502;SDS011;11418;48.118;9.992;2022-09-29T04:32:22;16.05;;;8.05;;
22502;SDS011;11418;48.118;9.992;2022-09-29T04:36:23;16.70;;;7.00;;
22502;SDS011;11418;48.118;9.992;2022-09-29T04:40:24;10.50;;;5.90;;
22502;SDS011;11418;48.118;9.992;2022-09-29T04:44:25;11.55;;;6.07;;
22502;SDS011;11418;48.118;9.992;2022-09-29T04:48:26;19.38;;;5.93;;
22502;SDS011;11418;48.118;9.992;2022-09-29T04:52:26;24.05;;;8.30;;
22502;SDS011;11418;48.118;9.992;2022-09-29T04:56:27;16.73;;;7.28;;
22502;SDS011;11418;48.118;9.992;2022-09-29T05:00:30;32.38;;;15.93;;
22502;SDS011;11418;48.118;9.992;2022-09-29T05:04:31;27.35;;;13.93;;
22502;SDS011;11418;48.118;9.992;2022-09-29T05:08:32;17.70;;;9.20;;
22502;SDS011;11418;48.118;9.992;2022-09-29T05:12:32;18.90;;;9.77;;
22502;SDS011;11418;48.118;9.992;2022-09-29T05:16:33;14.98;;;9.13;;
22502;SDS011;11418;48.118;9.992;2022-09-29T05:20:33;14.23;;;7.95;;
22502;SDS011;11418;48.118;9.992;2022-09-29T05:24:34;14.60;;;8.60;;
22502;SDS011;11418;48.118;9.992;2022-09-29T05:28:35;14.23;;;8.18;;
22502;SDS011;11418;48.118;9.992;2022-09-29T05:32:36;15.68;;;10.43;;
22502;SDS011;11418;48.118;9.992;2022-09-29T05:36:37;16.23;;;9.93;;
22502;SDS011;11418;48.118;9.992;2022-09-29T05:40:37;15.18;;;10.40;;
22502;SDS011;11418;48.118;9.992;2022-09-29T05:44:38;18.35;;;10.35;;
22502;SDS011;11418;48.118;9.992;2022-09-29T05:48:38;16.42;;;9.88;;
22502;SDS011;11418;48.118;9.992;2022-09-29T05:52:39;15.80;;;10.30;;
22502;SDS011;11418;48.118;9.992;2022-09-29T05:56:40;12.32;;;8.38;;
22502;SDS011;11418;48.118;9.992;2022-09-29T06:00:40;13.23;;;8.30;;
22502;SDS011;11418;48.118;9.992;2022-09-29T06:04:41;20.38;;;9.32;;
22502;SDS011;11418;48.118;9.992;2022-09-29T06:08:42;23.58;;;10.45;;
22502;SDS011;11418;48.118;9.992;2022-09-29T06:12:44;18.30;;;12.38;;
22502;SDS011;11418;48.118;9.992;2022-09-29T06:16:44;22.00;;;13.35;;
22502;SDS011;11418;48.118;9.992;2022-09-29T06:20:45;25.65;;;14.90;;
22502;SDS011;11418;48.118;9.992;2022-09-29T06:24:46;18.50;;;10.52;;
22502;SDS011;11418;48.118;9.992;2022-09-29T06:28:47;13.05;;;9.35;;
22502;SDS011;11418;48.118;9.992;2022-09-29T06:32:47;10.70;;;8.15;;
22502;SDS011;11418;48.118;9.992;2022-09-29T06:36:48;12.48;;;8.82;;
22502;SDS011;11418;48.118;9.992;2022-09-29T06:41:07;11.20;;;7.25;;
22502;SDS011;11418;48.118;9.992;2022-09-29T06:45:08;14.57;;;8.57;;
22502;SDS011;11418;48.118;9.992;2022-09-29T06:49:10;11.43;;;7.72;;
22502;SDS011;11418;48.118;9.992;2022-09-29T06:53:12;12.40;;;8.10;;
22502;SDS011;11418;48.118;9.992;2022-09-29T06:57:13;14.90;;;9.45;;
22502;SDS011;11418;48.118;9.992;2022-09-29T07:01:13;13.77;;;9.80;;
22502;SDS011;11418;48.118;9.992;2022-09-29T07:05:14;27.45;;;20.08;;
22502;SDS011;11418;48.118;9.992;2022-09-29T07:09:15;25.52;;;21.33;;
22502;SDS011;11418;48.118;9.992;2022-09-29T07:13:16;15.27;;;11.57;;
22502;SDS011;11418;48.118;9.992;2022-09-29T07:17:17;6.85;;;5.82;;
22502;SDS011;11418;48.118;9.992;2022-09-29T07:21:17;8.95;;;5.68;;
22502;SDS011;11418;48.118;9.992;2022-09-29T07:25:18;8.70;;;5.60;;
22502;SDS011;11418;48.118;9.992;2022-09-29T07:29:19;7.05;;;5.10;;
22502;SDS011;11418;48.118;9.992;2022-09-29T07:33:20;5.60;;;5.00;;
22502;SDS011;11418;48.118;9.992;2022-09-29T07:37:20;3.80;;;3.20;;
22502;SDS011;11418;48.118;9.992;2022-09-29T07:41:21;5.10;;;3.90;;
22502;SDS011;11418;48.118;9.992;2022-09-29T07:45:21;4.53;;;3.92;;
22502;SDS011;11418;48.118;9.992;2022-09-29T07:49:22;5.25;;;4.43;;
22502;SDS011;11418;48.118;9.992;2022-09-29T07:53:23;5.32;;;4.53;;
22502;SDS011;11418;48.118;9.992;2022-09-29T07:57:23;5.15;;;4.13;;
22502;SDS011;11418;48.118;9.992;2022-09-29T08:01:24;5.30;;;4.13;;
22502;SDS011;11418;48.118;9.992;2022-09-29T08:05:24;3.60;;;3.10;;
22502;SDS011;11418;48.118;9.992;2022-09-29T08:09:26;6.43;;;3.30;;
22502;SDS011;11418;48.118;9.992;2022-09-29T08:13:27;4.60;;;2.92;;
22502;SDS011;11418;48.118;9.992;2022-09-29T08:17:28;4.35;;;2.90;;
22502;SDS011;11418;48.118;9.992;2022-09-29T08:21:28;4.07;;;2.70;;
22502;SDS011;11418;48.118;9.992;2022-09-29T08:25:30;2.42;;;1.80;;
22502;SDS011;11418;48.118;9.992;2022-09-29T08:29:31;2.63;;;1.95;;
22502;SDS011;11418;48.118;9.992;2022-09-29T08:33:32;3.30;;;2.28;;
22502;SDS011;11418;48.118;9.992;2022-09-29T08:37:34;3.40;;;2.17;;
22502;SDS011;11418;48.118;9.992;2022-09-29T08:45:55;2.75;;;1.92;;
22502;SDS011;11418;48.118;9.992;2022-09-29T08:49:57;2.10;;;1.60;;
22502;SDS011;11418;48.118;9.992;2022-09-29T08:54:05;1.90;;;1.50;;
22502;SDS011;11418;48.118;9.992;2022-09-29T08:58:13;1.38;;;0.93;;
22502;SDS011;11418;48.118;9.992;2022-09-29T09:02:33;1.40;;;1.00;;
22502;SDS011;11418;48.118;9.992;2022-09-29T09:19:32;2.42;;;1.00;;
22502;SDS011;11418;48.118;9.992;2022-09-29T09:23:54;1.73;;;1.00;;
22502;SDS011;11418;48.118;9.992;2022-09-29T09:32:16;4.18;;;1.08;;
22502;SDS011;11418;48.118;9.992;2022-09-29T09:40:37;1.10;;;1.00;;
22502;SDS011;11418;48.118;9.992;2022-09-29T09:44:41;1.00;;;0.82;;
22502;SDS011;11418;48.118;9.992;2022-09-29T09:49:00;2.13;;;1.20;;
22502;SDS011;11418;48.118;9.992;2022-09-29T09:53:26;1.30;;;0.98;;
22502;SDS011;11418;48.118;9.992;2022-09-29T10:01:56;2.05;;;1.30;;
22502;SDS011;11418;48.118;9.992;2022-09-29T10:05:57;3.28;;;1.40;;
22502;SDS011;11418;48.118;9.992;2022-09-29T10:10:00;2.28;;;1.30;;
22502;SDS011;11418;48.118;9.992;2022-09-29T10:14:08;2.00;;;1.20;;
22502;SDS011;11418;48.118;9.992;2022-09-29T10:18:25;1.92;;;1.10;;
22502;SDS011;11418;48.118;9.992;2022-09-29T10:22:34;2.72;;;1.70;;
22502;SDS011;11418;48.118;9.992;2022-09-29T10:26:36;1.73;;;1.10;;
22502;SDS011;11418;48.118;9.992;2022-09-29T10:30:42;1.30;;;0.80;;
22502;SDS011;11418;48.118;9.992;2022-09-29T10:34:43;1.92;;;1.25;;
22502;SDS011;11418;48.118;9.992;2022-09-29T10:38:49;0.88;;;0.85;;
22502;SDS011;11418;48.118;9.992;2022-09-29T10:42:51;1.75;;;1.27;;
22502;SDS011;11418;48.118;9.992;2022-09-29T10:46:53;3.60;;;2.38;;
22502;SDS011;11418;48.118;9.992;2022-09-29T10:50:59;4.88;;;1.05;;
22502;SDS011;11418;48.118;9.992;2022-09-29T10:55:02;2.28;;;1.73;;
22502;SDS011;11418;48.118;9.992;2022-09-29T10:59:04;3.28;;;1.38;;
22502;SDS011;11418;48.118;9.992;2022-09-29T11:03:18;1.60;;;1.20;;
22502;SDS011;11418;48.118;9.992;2022-09-29T11:07:25;0.98;;;0.50;;
22502;SDS011;11418;48.118;9.992;2022-09-29T11:15:29;1.55;;;1.40;;
22502;SDS011;11418;48.118;9.992;2022-09-29T11:19:38;2.25;;;0.80;;
22502;SDS011;11418;48.118;9.992;2022-09-29T11:27:52;1.90;;;1.17;;
22502;SDS011;11418;48.118;9.992;2022-09-29T11:32:23;1.33;;;0.82;;
22502;SDS011;11418;48.118;9.992;2022-09-29T11:45:08;0.85;;;0.77;;
22502;SDS011;11418;48.118;9.992;2022-09-29T12:02:18;2.53;;;2.28;;
22502;SDS011;11418;48.118;9.992;2022-09-29T12:06:35;1.75;;;1.08;;
22502;SDS011;11418;48.118;9.992;2022-09-29T12:11:11;0.90;;;0.80;;
22502;SDS011;11418;48.118;9.992;2022-09-29T12:19:36;0.90;;;0.80;;
22502;SDS011;11418;48.118;9.992;2022-09-29T12:23:40;2.03;;;1.60;;
22502;SDS011;11418;48.118;9.992;2022-09-29T12:27:45;1.55;;;0.70;;
22502;SDS011;11418;48.118;9.992;2022-09-29T12:31:49;2.03;;;1.00;;
22502;SDS011;11418;48.118;9.992;2022-09-29T12:44:45;4.18;;;2.40;;
22502;SDS011;11418;48.118;9.992;2022-09-29T12:53:13;1.70;;;1.35;;
22502;SDS011;11418;48.118;9.992;2022-09-29T12:57:25;1.40;;;1.25;;
22502;SDS011;11418;48.118;9.992;2022-09-29T13:01:32;3.63;;;1.40;;
22502;SDS011;11418;48.118;9.992;2022-09-29T13:27:18;1.23;;;1.13;;
22502;SDS011;11418;48.118;9.992;2022-09-29T13:31:29;1.70;;;1.10;;
22502;SDS011;11418;48.118;9.992;2022-09-29T13:35:39;3.03;;;1.60;;
22502;SDS011;11418;48.118;9.992;2022-09-29T13:39:58;3.23;;;1.40;;
22502;SDS011;11418;48.118;9.992;2022-09-29T13:44:04;1.10;;;1.00;;
22502;SDS011;11418;48.118;9.992;2022-09-29T13:52:36;1.35;;;0.80;;
22502;SDS011;11418;48.118;9.992;2022-09-29T13:56:39;1.38;;;1.10;;
22502;SDS011;11418;48.118;9.992;2022-09-29T14:00:40;2.97;;;1.98;;
22502;SDS011;11418;48.118;9.992;2022-09-29T14:04:50;2.90;;;1.80;;
22502;SDS011;11418;48.118;9.992;2022-09-29T14:08:59;2.00;;;1.40;;
22502;SDS011;11418;48.118;9.992;2022-09-29T14:13:10;1.08;;;0.98;;
22502;SDS011;11418;48.118;9.992;2022-09-29T14:17:22;6.25;;;3.20;;
22502;SDS011;11418;48.118;9.992;2022-09-29T14:25:50;15.13;;;10.13;;
22502;SDS011;11418;48.118;9.992;2022-09-29T14:34:09;1.70;;;1.40;;
22502;SDS011;11418;48.118;9.992;2022-09-29T14:38:14;4.28;;;2.60;;
22502;SDS011;11418;48.118;9.992;2022-09-29T14:42:18;4.60;;;2.20;;
22502;SDS011;11418;48.118;9.992;2022-09-29T14:46:33;3.45;;;2.33;;
22502;SDS011;11418;48.118;9.992;2022-09-29T14:50:59;4.18;;;2.78;;
22502;SDS011;11418;48.118;9.992;2022-09-29T15:00:13;3.45;;;2.53;;
22502;SDS011;11418;48.118;9.992;2022-09-29T15:04:17;2.15;;;1.58;;
22502;SDS011;11418;48.118;9.992;2022-09-29T15:08:27;2.53;;;2.00;;
22502;SDS011;11418;48.118;9.992;2022-09-29T15:12:31;1.50;;;1.33;;
22502;SDS011;11418;48.118;9.992;2022-09-29T15:29:19;3.28;;;2.45;;
22502;SDS011;11418;48.118;9.992;2022-09-29T15:33:21;4.75;;;1.50;;
22502;SDS011;11418;48.118;9.992;2022-09-29T15:37:28;2.70;;;1.67;;
22502;SDS011;11418;48.118;9.992;2022-09-29T15:41:44;3.58;;;2.58;;
22502;SDS011;11418;48.118;9.992;2022-09-29T15:45:51;2.30;;;1.77;;
22502;SDS011;11418;48.118;9.992;2022-09-29T15:49:54;2.00;;;1.40;;
22502;SDS011;11418;48.118;9.992;2022-09-29T15:53:55;2.17;;;1.40;;
22502;SDS011;11418;48.118;9.992;2022-09-29T15:57:59;3.75;;;2.70;;
22502;SDS011;11418;48.118;9.992;2022-09-29T16:02:02;9.77;;;4.82;;
22502;SDS011;11418;48.118;9.992;2022-09-29T16:06:13;3.65;;;2.28;;
22502;SDS011;11418;48.118;9.992;2022-09-29T16:10:21;1.58;;;1.30;;
22502;SDS011;11418;48.118;9.992;2022-09-29T16:14:28;11.00;;;4.18;;
22502;SDS011;11418;48.118;9.992;2022-09-29T16:18:32;2.92;;;1.80;;
22502;SDS011;11418;48.118;9.992;2022-09-29T16:22:40;1.73;;;1.23;;
22502;SDS011;11418;48.118;9.992;2022-09-29T16:26:52;2.53;;;1.63;;
22502;SDS011;11418;48.118;9.992;2022-09-29T16:30:59;4.78;;;2.63;;
22502;SDS011;11418;48.118;9.992;2022-09-29T16:39:42;3.92;;;2.10;;
22502;SDS011;11418;48.118;9.992;2022-09-29T16:43:45;6.05;;;3.85;;
22502;SDS011;11418;48.118;9.992;2022-09-29T16:47:46;6.40;;;3.90;;
22502;SDS011;11418;48.118;9.992;2022-09-29T16:51:51;4.65;;;2.83;;
22502;SDS011;11418;48.118;9.992;2022-09-29T16:55:57;6.75;;;4.28;;
22502;SDS011;11418;48.118;9.992;2022-09-29T17:00:00;2.88;;;1.67;;
22502;SDS011;11418;48.118;9.992;2022-09-29T17:04:12;1.38;;;0.90;;
22502;SDS011;11418;48.118;9.992;2022-09-29T17:08:14;4.85;;;1.25;;
22502;SDS011;11418;48.118;9.992;2022-09-29T17:12:25;1.75;;;1.10;;
22502;SDS011;11418;48.118;9.992;2022-09-29T17:16:28;1.17;;;1.00;;
22502;SDS011;11418;48.118;9.992;2022-09-29T17:20:29;1.55;;;1.00;;
22502;SDS011;11418;48.118;9.992;2022-09-29T17:24:30;2.97;;;1.15;;
22502;SDS011;11418;48.118;9.992;2022-09-29T17:28:30;1.80;;;1.15;;
22502;SDS011;11418;48.118;9.992;2022-09-29T17:32:31;1.77;;;1.27;;
22502;SDS011;11418;48.118;9.992;2022-09-29T17:36:32;1.65;;;1.13;;
22502;SDS011;11418;48.118;9.992;2022-09-29T17:44:42;7.88;;;1.40;;
22502;SDS011;11418;48.118;9.992;2022-09-29T17:48:44;2.17;;;1.20;;
22502;SDS011;11418;48.118;9.992;2022-09-29T17:52:44;2.35;;;1.55;;
22502;SDS011;11418;48.118;9.992;2022-09-29T17:56:45;4.07;;;2.65;;
22502;SDS011;11418;48.118;9.992;2022-09-29T18:00:46;16.08;;;10.32;;
22502;SDS011;11418;48.118;9.992;2022-09-29T18:04:49;12.02;;;7.35;;
22502;SDS011;11418;48.118;9.992;2022-09-29T18:08:50;7.88;;;5.80;;
22502;SDS011;11418;48.118;9.992;2022-09-29T18:12:56;7.82;;;5.32;;
22502;SDS011;11418;48.118;9.992;2022-09-29T18:16:57;8.32;;;5.97;;
22502;SDS011;11418;48.118;9.992;2022-09-29T18:20:57;10.23;;;7.70;;
22502;SDS011;11418;48.118;9.992;2022-09-29T18:25:00;7.60;;;6.13;;
22502;SDS011;11418;48.118;9.992;2022-09-29T18:29:07;12.30;;;7.00;;
22502;SDS011;11418;48.118;9.992;2022-09-29T18:33:26;6.20;;;4.55;;
22502;SDS011;11418;48.118;9.992;2022-09-29T18:37:27;8.43;;;4.95;;
22502;SDS011;11418;48.118;9.992;2022-09-29T18:41:27;4.75;;;3.63;;
22502;SDS011;11418;48.118;9.992;2022-09-29T18:45:29;6.93;;;3.65;;
22502;SDS011;11418;48.118;9.992;2022-09-29T18:49:31;6.35;;;3.45;;
22502;SDS011;11418;48.118;9.992;2022-09-29T18:53:31;4.57;;;3.35;;
22502;SDS011;11418;48.118;9.992;2022-09-29T18:57:32;6.53;;;4.13;;
22502;SDS011;11418;48.118;9.992;2022-09-29T19:01:33;3.33;;;2.60;;
22502;SDS011;11418;48.118;9.992;2022-09-29T19:05:34;6.80;;;1.63;;
22502;SDS011;11418;48.118;9.992;2022-09-29T19:09:35;4.07;;;2.90;;
22502;SDS011;11418;48.118;9.992;2022-09-29T19:13:35;8.02;;;3.38;;
22502;SDS011;11418;48.118;9.992;2022-09-29T19:17:38;8.25;;;4.32;;
22502;SDS011;11418;48.118;9.992;2022-09-29T19:21:39;4.03;;;3.13;;
22502;SDS011;11418;48.118;9.992;2022-09-29T19:25:41;3.97;;;3.08;;
22502;SDS011;11418;48.118;9.992;2022-09-29T19:29:41;4.35;;;1.90;;
22502;SDS011;11418;48.118;9.992;2022-09-29T19:33:42;4.90;;;1.80;;
22502;SDS011;11418;48.118;9.992;2022-09-29T19:37:42;2.40;;;1.73;;
22502;SDS011;11418;48.118;9.992;2022-09-29T19:41:43;5.50;;;1.73;;
22502;SDS011;11418;48.118;9.992;2022-09-29T19:45:44;2.90;;;1.52;;
22502;SDS011;11418;48.118;9.992;2022-09-29T19:49:44;2.60;;;1.80;;
22502;SDS011;11418;48.118;9.992;2022-09-29T19:53:45;6.57;;;2.38;;
22502;SDS011;11418;48.118;9.992;2022-09-29T19:57:46;5.00;;;2.40;;
22502;SDS011;11418;48.118;9.992;2022-09-29T20:01:47;3.65;;;2.50;;
22502;SDS011;11418;48.118;9.992;2022-09-29T20:05:49;4.68;;;2.80;;
22502;SDS011;11418;48.118;9.992;2022-09-29T20:09:50;6.35;;;2.90;;
22502;SDS011;11418;48.118;9.992;2022-09-29T20:13:50;3.55;;;2.72;;
22502;SDS011;11418;48.118;9.992;2022-09-29T20:17:52;3.80;;;2.80;;
22502;SDS011;11418;48.118;9.992;2022-09-29T20:21:53;4.05;;;2.97;;
22502;SDS011;11418;48.118;9.992;2022-09-29T20:25:59;3.83;;;3.08;;
22502;SDS011;11418;48.118;9.992;2022-09-29T20:30:00;47.00;;;3.17;;
22502;SDS011;11418;48.118;9.992;2022-09-29T20:34:04;44.38;;;3.13;;
22502;SDS011;11418;48.118;9.992;2022-09-29T20:38:05;4.25;;;2.25;;
22502;SDS011;11418;48.118;9.992;2022-09-29T20:42:07;9.00;;;2.60;;
22502;SDS011;11418;48.118;9.992;2022-09-29T20:46:10;13.05;;;2.30;;
22502;SDS011;11418;48.118;9.992;2022-09-29T20:50:12;28.17;;;2.85;;
22502;SDS011;11418;48.118;9.992;2022-09-29T20:54:13;7.60;;;3.50;;
22502;SDS011;11418;48.118;9.992;2022-09-29T20:58:14;5.97;;;2.67;;
22502;SDS011;11418;48.118;9.992;2022-09-29T21:02:14;6.55;;;4.15;;
22502;SDS011;11418;48.118;9.992;2022-09-29T21:06:15;5.15;;;2.78;;
22502;SDS011;11418;48.118;9.992;2022-09-29T21:10:16;4.70;;;2.20;;
22502;SDS011;11418;48.118;9.992;2022-09-29T21:14:21;7.32;;;3.00;;
22502;SDS011;11418;48.118;9.992;2022-09-29T21:18:26;8.45;;;4.03;;
22502;SDS011;11418;48.118;9.992;2022-09-29T21:22:27;6.43;;;2.63;;
22502;SDS011;11418;48.118;9.992;2022-09-29T21:26:28;79.88;;;3.38;;
22502;SDS011;11418;48.118;9.992;2022-09-29T21:30:29;57.63;;;3.50;;
22502;SDS011;11418;48.118;9.992;2022-09-29T21:34:30;6.50;;;1.92;;
22502;SDS011;11418;48.118;9.992;2022-09-29T21:38:32;7.97;;;2.33;;
22502;SDS011;11418;48.118;9.992;2022-09-29T21:42:34;3.38;;;2.50;;
22502;SDS011;11418;48.118;9.992;2022-09-29T21:46:35;3.45;;;1.88;;
22502;SDS011;11418;48.118;9.992;2022-09-29T21:50:37;3.65;;;2.63;;
22502;SDS011;11418;48.118;9.992;2022-09-29T21:54:37;5.65;;;2.42;;
22502;SDS011;11418;48.118;9.992;2022-09-29T21:58:38;8.98;;;2.50;;
22502;SDS011;11418;48.118;9.992;2022-09-29T22:02:39;3.65;;;2.60;;
22502;SDS011;11418;48.118;9.992;2022-09-29T22:06:40;3.80;;;2.92;;
22502;SDS011;11418;48.118;9.992;2022-09-29T22:10:46;3.47;;;2.55;;
22502;SDS011;11418;48.118;9.992;2022-09-29T22:14:47;6.35;;;3.05;;
22502;SDS011;11418;48.118;9.992;2022-09-29T22:18:48;4.68;;;2.92;;
22502;SDS011;11418;48.118;9.992;2022-09-29T22:22:49;4.22;;;2.85;;
22502;SDS011;11418;48.118;9.992;2022-09-29T22:26:50;10.73;;;4.05;;
22502;SDS011;11418;48.118;9.992;2022-09-29T22:30:51;9.40;;;4.35;;
22502;SDS011;11418;48.118;9.992;2022-09-29T22:34:51;6.35;;;4.03;;
22502;SDS011;11418;48.118;9.992;2022-09-29T22:38:53;10.25;;;3.67;;
22502;SDS011;11418;48.118;9.992;2022-09-29T22:42:54;11.55;;;3.45;;
22502;SDS011;11418;48.118;9.992;2022-09-29T22:46:55;57.78;;;4.15;;
22502;SDS011;11418;48.118;9.992;2022-09-29T22:50:55;66.93;;;4.07;;
22502;SDS011;11418;48.118;9.992;2022-09-29T22:54:56;33.13;;;3.33;;
22502;SDS011;11418;48.118;9.992;2022-09-29T22:59:00;16.45;;;3.38;;
22502;SDS011;11418;48.118;9.992;2022-09-29T23:03:02;52.75;;;5.40;;
22502;SDS011;11418;48.118;9.992;2022-09-29T23:07:04;56.22;;;6.15;;
22502;SDS011;11418;48.118;9.992;2022-09-29T23:11:06;57.60;;;5.65;;
22502;SDS011;11418;48.118;9.992;2022-09-29T23:15:07;20.55;;;3.40;;
22502;SDS011;11418;48.118;9.992;2022-09-29T23:19:09;22.10;;;2.78;;
22502;SDS011;11418;48.118;9.992;2022-09-29T23:23:10;33.03;;;3.60;;
22502;SDS011;11418;48.118;9.992;2022-09-29T23:27:11;27.10;;;3.90;;
22502;SDS011;11418;48.118;9.992;2022-09-29T23:31:11;48.25;;;4.63;;
22502;SDS011;11418;48.118;9.992;2022-09-29T23:35:12;26.52;;;4.80;;
22502;SDS011;11418;48.118;9.992;2022-09-29T23:39:13;18.70;;;3.67;;
22502;SDS011;11418;48.118;9.992;2022-09-29T23:43:13;19.35;;;4.80;;
22502;SDS011;11418;48.118;9.992;2022-09-29T23:47:14;17.88;;;4.28;;
22502;SDS011;11418;48.118;9.992;2022-09-29T23:51:14;11.43;;;3.80;;
22502;SDS011;11418;48.118;9.992;2022-09-29T23:55:17;10.88;;;3.67;;
22502;SDS011;11418;48.118;9.992;2022-09-29T23:59:17;19.75;;;4.22;;
